sensor_id;sensor_type;location;lat;lon;timestamp;temperature;humidity
20946;DHT22;10632;51.276;7.116;2023-04-25T00:00:10;5.00;99.90
20946;DHT22;10632;51.276;7.116;2023-04-25T00:02:37;5.00;99.90
20946;DHT22;10632;51.276;7.116;2023-04-25T00:05:06;5.10;99.90
20946;DHT22;10632;51.276;7.116;2023-04-25T00:07:33;5.10;99.90
20946;DHT22;10632;51.276;7.116;2023-04-25T00:10:01;5.10;99.90
20946;DHT22;10632;51.276;7.116;2023-04-25T00:12:31;5.10;99.90
20946;DHT22;10632;51.276;7.116;2023-04-25T00:14:59;5.10;99.90
20946;DHT22;10632;51.276;7.116;2023-04-25T00:17:25;5.10;99.90
20946;DHT22;10632;51.276;7.116;2023-04-25T00:19:53;5.10;99.90
20946;DHT22;10632;51.276;7.116;2023-04-25T00:22:22;5.10;99.90
20946;DHT22;10632;51.276;7.116;2023-04-25T00:24:48;5.10;99.90
20946;DHT22;10632;51.276;7.116;2023-04-25T00:27:15;5.10;99.90
20946;DHT22;10632;51.276;7.116;2023-04-25T00:29:42;5.20;99.90
20946;DHT22;10632;51.276;7.116;2023-04-25T00:32:09;5.20;99.90
20946;DHT22;10632;51.276;7.116;2023-04-25T00:34:36;5.20;99.90
20946;DHT22;10632;51.276;7.116;2023-04-25T00:37:03;5.20;99.90
20946;DHT22;10632;51.276;7.116;2023-04-25T00:39:31;5.20;99.90
20946;DHT22;10632;51.276;7.116;2023-04-25T00:41:58;5.20;99.90
20946;DHT22;10632;51.276;7.116;2023-04-25T00:44:26;5.20;99.90
20946;DHT22;10632;51.276;7.116;2023-04-25T00:46:55;5.20;99.90
20946;DHT22;10632;51.276;7.116;2023-04-25T00:49:22;5.20;99.90
20946;DHT22;10632;51.276;7.116;2023-04-25T00:51:49;5.20;99.90
20946;DHT22;10632;51.276;7.116;2023-04-25T00:54:16;5.20;99.90
20946;DHT22;10632;51.276;7.116;2023-04-25T00:56:45;5.20;99.90
20946;DHT22;10632;51.276;7.116;2023-04-25T00:59:12;5.20;99.90
20946;DHT22;10632;51.276;7.116;2023-04-25T01:01:39;5.20;99.90
20946;DHT22;10632;51.276;7.116;2023-04-25T01:04:07;5.20;99.90
20946;DHT22;10632;51.276;7.116;2023-04-25T01:06:34;5.20;99.90
20946;DHT22;10632;51.276;7.116;2023-04-25T01:09:02;5.30;99.90
20946;DHT22;10632;51.276;7.116;2023-04-25T01:11:30;5.30;99.90
20946;DHT22;10632;51.276;7.116;2023-04-25T01:13:58;5.30;99.90
20946;DHT22;10632;51.276;7.116;2023-04-25T01:16:26;5.20;99.90
20946;DHT22;10632;51.276;7.116;2023-04-25T01:18:52;5.30;99.90
20946;DHT22;10632;51.276;7.116;2023-04-25T01:21:21;5.30;99.90
20946;DHT22;10632;51.276;7.116;2023-04-25T01:23:52;5.30;99.90
20946;DHT22;10632;51.276;7.116;2023-04-25T01:26:19;5.20;99.90
20946;DHT22;10632;51.276;7.116;2023-04-25T01:28:48;5.30;99.90
20946;DHT22;10632;51.276;7.116;2023-04-25T01:31:15;5.20;99.90
20946;DHT22;10632;51.276;7.116;2023-04-25T01:33:43;5.20;99.90
20946;DHT22;10632;51.276;7.116;2023-04-25T01:36:10;5.20;99.90
20946;DHT22;10632;51.276;7.116;2023-04-25T01:38:39;5.20;99.90
20946;DHT22;10632;51.276;7.116;2023-04-25T01:41:06;5.20;99.90
20946;DHT22;10632;51.276;7.116;2023-04-25T01:43:33;5.20;99.90
20946;DHT22;10632;51.276;7.116;2023-04-25T01:46:01;5.20;99.90
20946;DHT22;10632;51.276;7.116;2023-04-25T01:48:28;5.20;99.90
20946;DHT22;10632;51.276;7.116;2023-04-25T01:50:55;5.20;99.90
20946;DHT22;10632;51.276;7.116;2023-04-25T01:53:21;5.20;99.90
20946;DHT22;10632;51.276;7.116;2023-04-25T01:55:50;5.20;99.90
20946;DHT22;10632;51.276;7.116;2023-04-25T01:58:17;5.20;99.90
20946;DHT22;10632;51.276;7.116;2023-04-25T02:00:44;5.20;99.90
20946;DHT22;10632;51.276;7.116;2023-04-25T02:03:11;5.20;99.90
20946;DHT22;10632;51.276;7.116;2023-04-25T02:05:38;5.20;99.90
20946;DHT22;10632;51.276;7.116;2023-04-25T02:08:06;5.20;99.90
20946;DHT22;10632;51.276;7.116;2023-04-25T02:10:34;5.20;99.90
20946;DHT22;10632;51.276;7.116;2023-04-25T02:13:02;5.20;99.90
20946;DHT22;10632;51.276;7.116;2023-04-25T02:15:29;5.20;99.90
20946;DHT22;10632;51.276;7.116;2023-04-25T02:17:56;5.20;99.90
20946;DHT22;10632;51.276;7.116;2023-04-25T02:20:26;5.20;99.90
20946;DHT22;10632;51.276;7.116;2023-04-25T02:22:53;5.20;99.90
20946;DHT22;10632;51.276;7.116;2023-04-25T02:25:20;5.20;99.90
20946;DHT22;10632;51.276;7.116;2023-04-25T02:27:47;5.20;99.90
20946;DHT22;10632;51.276;7.116;2023-04-25T02:30:16;5.10;99.90
20946;DHT22;10632;51.276;7.116;2023-04-25T02:32:43;5.10;99.90
20946;DHT22;10632;51.276;7.116;2023-04-25T02:35:10;5.10;99.90
20946;DHT22;10632;51.276;7.116;2023-04-25T02:37:38;5.10;99.90
20946;DHT22;10632;51.276;7.116;2023-04-25T02:40:06;5.10;99.90
20946;DHT22;10632;51.276;7.116;2023-04-25T02:42:34;5.10;99.90
20946;DHT22;10632;51.276;7.116;2023-04-25T02:45:01;5.10;99.90
20946;DHT22;10632;51.276;7.116;2023-04-25T02:47:29;5.10;99.90
20946;DHT22;10632;51.276;7.116;2023-04-25T02:49:56;5.10;99.90
20946;DHT22;10632;51.276;7.116;2023-04-25T02:52:23;5.10;99.90
20946;DHT22;10632;51.276;7.116;2023-04-25T02:54:50;5.10;99.90
20946;DHT22;10632;51.276;7.116;2023-04-25T02:57:19;5.10;99.90
20946;DHT22;10632;51.276;7.116;2023-04-25T02:59:46;5.00;99.90
20946;DHT22;10632;51.276;7.116;2023-04-25T03:02:13;5.00;99.90
20946;DHT22;10632;51.276;7.116;2023-04-25T03:04:44;5.00;99.90
20946;DHT22;10632;51.276;7.116;2023-04-25T03:07:12;5.10;99.90
20946;DHT22;10632;51.276;7.116;2023-04-25T03:09:39;5.10;99.90
20946;DHT22;10632;51.276;7.116;2023-04-25T03:12:06;5.10;99.90
20946;DHT22;10632;51.276;7.116;2023-04-25T03:14:33;5.10;99.90
20946;DHT22;10632;51.276;7.116;2023-04-25T03:17:00;5.00;99.90
20946;DHT22;10632;51.276;7.116;2023-04-25T03:19:27;5.00;99.90
20946;DHT22;10632;51.276;7.116;2023-04-25T03:21:55;5.00;99.90
20946;DHT22;10632;51.276;7.116;2023-04-25T03:24:22;5.00;99.90
20946;DHT22;10632;51.276;7.116;2023-04-25T03:26:49;5.10;99.90
20946;DHT22;10632;51.276;7.116;2023-04-25T03:29:15;5.00;99.90
20946;DHT22;10632;51.276;7.116;2023-04-25T03:31:42;5.00;99.90
20946;DHT22;10632;51.276;7.116;2023-04-25T03:34:09;5.00;99.90
20946;DHT22;10632;51.276;7.116;2023-04-25T03:36:36;5.00;99.90
20946;DHT22;10632;51.276;7.116;2023-04-25T03:39:04;5.00;99.90
20946;DHT22;10632;51.276;7.116;2023-04-25T03:41:32;5.00;99.90
20946;DHT22;10632;51.276;7.116;2023-04-25T03:43:59;5.00;99.90
20946;DHT22;10632;51.276;7.116;2023-04-25T03:46:26;5.00;99.90
20946;DHT22;10632;51.276;7.116;2023-04-25T03:48:53;5.00;99.90
20946;DHT22;10632;51.276;7.116;2023-04-25T03:51:19;5.00;99.90
20946;DHT22;10632;51.276;7.116;2023-04-25T03:53:47;5.00;99.90
20946;DHT22;10632;51.276;7.116;2023-04-25T03:56:15;5.00;99.90
20946;DHT22;10632;51.276;7.116;2023-04-25T03:58:42;5.00;99.90
20946;DHT22;10632;51.276;7.116;2023-04-25T04:01:09;5.00;99.90
20946;DHT22;10632;51.276;7.116;2023-04-25T04:03:37;5.00;99.90
20946;DHT22;10632;51.276;7.116;2023-04-25T04:06:04;5.00;99.90
20946;DHT22;10632;51.276;7.116;2023-04-25T04:08:32;5.00;99.90
20946;DHT22;10632;51.276;7.116;2023-04-25T04:10:59;5.00;99.90
20946;DHT22;10632;51.276;7.116;2023-04-25T04:13:28;5.00;99.90
20946;DHT22;10632;51.276;7.116;2023-04-25T04:15:55;5.00;99.90
20946;DHT22;10632;51.276;7.116;2023-04-25T04:18:23;5.00;99.90
20946;DHT22;10632;51.276;7.116;2023-04-25T04:20:50;5.00;99.90
20946;DHT22;10632;51.276;7.116;2023-04-25T04:23:16;4.90;99.90
20946;DHT22;10632;51.276;7.116;2023-04-25T04:25:43;4.90;99.90
20946;DHT22;10632;51.276;7.116;2023-04-25T04:28:11;4.90;99.90
20946;DHT22;10632;51.276;7.116;2023-04-25T04:30:40;4.90;99.90
20946;DHT22;10632;51.276;7.116;2023-04-25T04:33:08;4.90;99.90
20946;DHT22;10632;51.276;7.116;2023-04-25T04:35:35;4.90;99.90
20946;DHT22;10632;51.276;7.116;2023-04-25T04:38:02;4.90;99.90
20946;DHT22;10632;51.276;7.116;2023-04-25T04:40:29;4.90;99.90
20946;DHT22;10632;51.276;7.116;2023-04-25T04:42:57;4.90;99.90
20946;DHT22;10632;51.276;7.116;2023-04-25T04:45:24;4.90;99.90
20946;DHT22;10632;51.276;7.116;2023-04-25T04:47:54;4.90;99.90
20946;DHT22;10632;51.276;7.116;2023-04-25T04:50:22;4.90;99.90
20946;DHT22;10632;51.276;7.116;2023-04-25T04:52:49;4.90;99.90
20946;DHT22;10632;51.276;7.116;2023-04-25T04:55:16;4.90;99.90
20946;DHT22;10632;51.276;7.116;2023-04-25T04:57:44;4.90;99.90
20946;DHT22;10632;51.276;7.116;2023-04-25T05:00:12;4.90;99.90
20946;DHT22;10632;51.276;7.116;2023-04-25T05:02:39;4.90;99.90
20946;DHT22;10632;51.276;7.116;2023-04-25T05:05:08;4.80;99.90
20946;DHT22;10632;51.276;7.116;2023-04-25T05:07:35;4.80;99.90
20946;DHT22;10632;51.276;7.116;2023-04-25T05:10:03;4.80;99.90
20946;DHT22;10632;51.276;7.116;2023-04-25T05:12:30;4.90;99.90
20946;DHT22;10632;51.276;7.116;2023-04-25T05:14:57;4.80;99.90
20946;DHT22;10632;51.276;7.116;2023-04-25T05:17:24;4.80;99.90
20946;DHT22;10632;51.276;7.116;2023-04-25T05:19:51;4.80;99.90
20946;DHT22;10632;51.276;7.116;2023-04-25T05:22:19;4.80;99.90
20946;DHT22;10632;51.276;7.116;2023-04-25T05:24:46;4.90;99.90
20946;DHT22;10632;51.276;7.116;2023-04-25T05:27:15;4.80;99.90
20946;DHT22;10632;51.276;7.116;2023-04-25T05:29:42;4.80;99.90
20946;DHT22;10632;51.276;7.116;2023-04-25T05:32:09;4.80;99.90
20946;DHT22;10632;51.276;7.116;2023-04-25T05:34:36;4.80;99.90
20946;DHT22;10632;51.276;7.116;2023-04-25T05:37:06;4.80;99.90
20946;DHT22;10632;51.276;7.116;2023-04-25T05:39:35;4.80;99.90
20946;DHT22;10632;51.276;7.116;2023-04-25T05:42:05;4.80;99.90
20946;DHT22;10632;51.276;7.116;2023-04-25T05:44:31;4.80;99.90
20946;DHT22;10632;51.276;7.116;2023-04-25T05:46:58;4.90;99.90
20946;DHT22;10632;51.276;7.116;2023-04-25T05:49:26;4.90;99.90
20946;DHT22;10632;51.276;7.116;2023-04-25T05:51:52;4.90;99.90
20946;DHT22;10632;51.276;7.116;2023-04-25T05:54:20;5.00;99.90
20946;DHT22;10632;51.276;7.116;2023-04-25T05:56:48;4.90;99.90
20946;DHT22;10632;51.276;7.116;2023-04-25T05:59:15;4.90;99.90
20946;DHT22;10632;51.276;7.116;2023-04-25T06:01:42;4.90;99.90
20946;DHT22;10632;51.276;7.116;2023-04-25T06:04:12;4.90;99.90
20946;DHT22;10632;51.276;7.116;2023-04-25T06:06:39;4.90;99.90
20946;DHT22;10632;51.276;7.116;2023-04-25T06:09:06;4.90;99.90
20946;DHT22;10632;51.276;7.116;2023-04-25T06:11:32;5.00;99.90
20946;DHT22;10632;51.276;7.116;2023-04-25T06:14:01;5.00;99.90
20946;DHT22;10632;51.276;7.116;2023-04-25T06:16:28;5.00;99.90
20946;DHT22;10632;51.276;7.116;2023-04-25T06:18:55;5.00;99.90
20946;DHT22;10632;51.276;7.116;2023-04-25T06:21:22;5.10;99.90
20946;DHT22;10632;51.276;7.116;2023-04-25T06:23:48;5.10;99.90
20946;DHT22;10632;51.276;7.116;2023-04-25T06:26:15;5.10;99.90
20946;DHT22;10632;51.276;7.116;2023-04-25T06:28:42;5.20;99.90
20946;DHT22;10632;51.276;7.116;2023-04-25T06:31:10;5.20;99.90
20946;DHT22;10632;51.276;7.116;2023-04-25T06:33:37;5.30;99.90
20946;DHT22;10632;51.276;7.116;2023-04-25T06:36:05;5.30;99.90
20946;DHT22;10632;51.276;7.116;2023-04-25T06:38:32;5.30;99.90
20946;DHT22;10632;51.276;7.116;2023-04-25T06:41:00;5.30;99.90
20946;DHT22;10632;51.276;7.116;2023-04-25T06:43:27;5.40;99.90
20946;DHT22;10632;51.276;7.116;2023-04-25T06:45:58;5.40;99.90
20946;DHT22;10632;51.276;7.116;2023-04-25T06:48:26;5.40;99.90
20946;DHT22;10632;51.276;7.116;2023-04-25T06:50:54;5.40;99.90
20946;DHT22;10632;51.276;7.116;2023-04-25T06:53:22;5.40;99.90
20946;DHT22;10632;51.276;7.116;2023-04-25T06:55:48;5.50;99.90
20946;DHT22;10632;51.276;7.116;2023-04-25T06:58:15;5.50;99.90
20946;DHT22;10632;51.276;7.116;2023-04-25T07:00:42;5.50;99.90
20946;DHT22;10632;51.276;7.116;2023-04-25T07:03:09;5.50;99.90
20946;DHT22;10632;51.276;7.116;2023-04-25T07:05:38;5.50;99.90
20946;DHT22;10632;51.276;7.116;2023-04-25T07:08:04;5.60;99.90
20946;DHT22;10632;51.276;7.116;2023-04-25T07:10:31;5.60;99.90
20946;DHT22;10632;51.276;7.116;2023-04-25T07:12:58;5.60;99.90
20946;DHT22;10632;51.276;7.116;2023-04-25T07:15:25;5.60;99.90
20946;DHT22;10632;51.276;7.116;2023-04-25T07:17:52;5.60;99.90
20946;DHT22;10632;51.276;7.116;2023-04-25T07:20:19;5.70;99.90
20946;DHT22;10632;51.276;7.116;2023-04-25T07:22:47;5.70;99.90
20946;DHT22;10632;51.276;7.116;2023-04-25T07:25:15;5.70;99.90
20946;DHT22;10632;51.276;7.116;2023-04-25T07:27:42;5.70;99.90
20946;DHT22;10632;51.276;7.116;2023-04-25T07:30:10;5.70;99.90
20946;DHT22;10632;51.276;7.116;2023-04-25T07:32:38;5.80;99.90
20946;DHT22;10632;51.276;7.116;2023-04-25T07:35:06;5.80;99.90
20946;DHT22;10632;51.276;7.116;2023-04-25T07:37:33;5.80;99.90
20946;DHT22;10632;51.276;7.116;2023-04-25T07:40:02;5.80;99.90
20946;DHT22;10632;51.276;7.116;2023-04-25T07:42:30;5.80;99.90
20946;DHT22;10632;51.276;7.116;2023-04-25T07:44:57;5.80;99.90
20946;DHT22;10632;51.276;7.116;2023-04-25T07:47:24;5.70;99.90
20946;DHT22;10632;51.276;7.116;2023-04-25T07:49:51;5.70;99.90
20946;DHT22;10632;51.276;7.116;2023-04-25T07:52:18;5.70;99.90
20946;DHT22;10632;51.276;7.116;2023-04-25T07:54:45;5.70;99.90
20946;DHT22;10632;51.276;7.116;2023-04-25T07:57:14;5.70;99.90
20946;DHT22;10632;51.276;7.116;2023-04-25T07:59:42;5.80;99.90
20946;DHT22;10632;51.276;7.116;2023-04-25T08:02:09;5.90;99.90
20946;DHT22;10632;51.276;7.116;2023-04-25T08:04:36;5.90;99.90
20946;DHT22;10632;51.276;7.116;2023-04-25T08:07:03;6.00;99.90
20946;DHT22;10632;51.276;7.116;2023-04-25T08:09:30;6.10;99.90
20946;DHT22;10632;51.276;7.116;2023-04-25T08:12:00;6.10;99.90
20946;DHT22;10632;51.276;7.116;2023-04-25T08:14:29;6.10;99.90
20946;DHT22;10632;51.276;7.116;2023-04-25T08:17:01;6.10;99.90
20946;DHT22;10632;51.276;7.116;2023-04-25T08:19:28;6.20;99.90
20946;DHT22;10632;51.276;7.116;2023-04-25T08:21:55;6.30;99.90
20946;DHT22;10632;51.276;7.116;2023-04-25T08:24:22;6.40;99.90
20946;DHT22;10632;51.276;7.116;2023-04-25T08:26:51;6.60;99.90
20946;DHT22;10632;51.276;7.116;2023-04-25T08:29:18;6.70;99.90
20946;DHT22;10632;51.276;7.116;2023-04-25T08:31:46;6.80;99.90
20946;DHT22;10632;51.276;7.116;2023-04-25T08:34:13;6.70;99.90
20946;DHT22;10632;51.276;7.116;2023-04-25T08:36:40;6.70;99.90
20946;DHT22;10632;51.276;7.116;2023-04-25T08:39:07;6.70;99.90
20946;DHT22;10632;51.276;7.116;2023-04-25T08:41:36;6.70;99.90
20946;DHT22;10632;51.276;7.116;2023-04-25T08:44:03;6.70;99.90
20946;DHT22;10632;51.276;7.116;2023-04-25T08:46:32;6.80;99.90
20946;DHT22;10632;51.276;7.116;2023-04-25T08:49:01;6.80;99.90
20946;DHT22;10632;51.276;7.116;2023-04-25T08:51:31;6.80;99.90
20946;DHT22;10632;51.276;7.116;2023-04-25T08:54:03;6.80;99.90
20946;DHT22;10632;51.276;7.116;2023-04-25T08:56:35;6.70;99.90
20946;DHT22;10632;51.276;7.116;2023-04-25T08:59:02;6.70;99.90
20946;DHT22;10632;51.276;7.116;2023-04-25T09:01:29;6.60;99.90
20946;DHT22;10632;51.276;7.116;2023-04-25T09:03:57;6.70;99.90
20946;DHT22;10632;51.276;7.116;2023-04-25T09:06:26;6.70;99.90
20946;DHT22;10632;51.276;7.116;2023-04-25T09:08:54;6.70;99.90
20946;DHT22;10632;51.276;7.116;2023-04-25T09:11:21;6.70;99.90
20946;DHT22;10632;51.276;7.116;2023-04-25T09:13:47;6.70;99.90
20946;DHT22;10632;51.276;7.116;2023-04-25T09:16:15;6.70;99.90
20946;DHT22;10632;51.276;7.116;2023-04-25T09:18:44;6.70;99.90
20946;DHT22;10632;51.276;7.116;2023-04-25T09:21:16;6.90;99.90
20946;DHT22;10632;51.276;7.116;2023-04-25T09:23:47;7.10;99.90
20946;DHT22;10632;51.276;7.116;2023-04-25T09:26:16;7.20;99.90
20946;DHT22;10632;51.276;7.116;2023-04-25T09:28:43;7.30;99.90
20946;DHT22;10632;51.276;7.116;2023-04-25T09:31:11;7.40;99.90
20946;DHT22;10632;51.276;7.116;2023-04-25T09:33:40;7.40;99.90
20946;DHT22;10632;51.276;7.116;2023-04-25T09:36:09;7.30;99.90
20946;DHT22;10632;51.276;7.116;2023-04-25T09:38:41;7.30;99.90
20946;DHT22;10632;51.276;7.116;2023-04-25T09:41:10;7.30;99.90
20946;DHT22;10632;51.276;7.116;2023-04-25T09:43:37;7.30;99.90
20946;DHT22;10632;51.276;7.116;2023-04-25T09:46:08;7.30;99.90
20946;DHT22;10632;51.276;7.116;2023-04-25T09:48:36;7.30;99.90
20946;DHT22;10632;51.276;7.116;2023-04-25T09:51:05;7.30;99.90
20946;DHT22;10632;51.276;7.116;2023-04-25T09:53:32;7.30;99.90
20946;DHT22;10632;51.276;7.116;2023-04-25T09:56:00;7.40;99.90
20946;DHT22;10632;51.276;7.116;2023-04-25T09:58:32;7.40;99.90
20946;DHT22;10632;51.276;7.116;2023-04-25T10:01:01;7.50;99.90
20946;DHT22;10632;51.276;7.116;2023-04-25T10:03:29;7.50;99.90
20946;DHT22;10632;51.276;7.116;2023-04-25T10:05:58;7.50;99.90
20946;DHT22;10632;51.276;7.116;2023-04-25T10:08:28;7.60;99.90
20946;DHT22;10632;51.276;7.116;2023-04-25T10:10:59;7.80;99.90
20946;DHT22;10632;51.276;7.116;2023-04-25T10:13:28;7.80;99.90
20946;DHT22;10632;51.276;7.116;2023-04-25T10:15:57;7.90;99.90
20946;DHT22;10632;51.276;7.116;2023-04-25T10:18:25;7.80;99.90
20946;DHT22;10632;51.276;7.116;2023-04-25T10:20:54;7.80;99.90
20946;DHT22;10632;51.276;7.116;2023-04-25T10:23:22;7.80;99.90
20946;DHT22;10632;51.276;7.116;2023-04-25T10:25:50;7.80;99.90
20946;DHT22;10632;51.276;7.116;2023-04-25T10:28:18;7.80;99.90
20946;DHT22;10632;51.276;7.116;2023-04-25T10:30:58;7.80;99.90
20946;DHT22;10632;51.276;7.116;2023-04-25T10:33:36;7.70;99.90
20946;DHT22;10632;51.276;7.116;2023-04-25T10:36:11;7.70;99.90
20946;DHT22;10632;51.276;7.116;2023-04-25T10:38:38;7.60;99.90
20946;DHT22;10632;51.276;7.116;2023-04-25T10:41:07;7.70;99.90
20946;DHT22;10632;51.276;7.116;2023-04-25T10:43:36;7.90;99.90
20946;DHT22;10632;51.276;7.116;2023-04-25T10:46:17;8.10;99.90
20946;DHT22;10632;51.276;7.116;2023-04-25T10:48:49;8.20;99.90
20946;DHT22;10632;51.276;7.116;2023-04-25T10:51:21;8.30;99.90
20946;DHT22;10632;51.276;7.116;2023-04-25T10:53:57;8.30;99.90
20946;DHT22;10632;51.276;7.116;2023-04-25T10:56:27;8.40;99.90
20946;DHT22;10632;51.276;7.116;2023-04-25T10:59:06;8.60;99.90
20946;DHT22;10632;51.276;7.116;2023-04-25T11:01:38;8.90;99.90
20946;DHT22;10632;51.276;7.116;2023-04-25T11:04:05;9.10;99.90
20946;DHT22;10632;51.276;7.116;2023-04-25T11:06:44;9.10;99.90
20946;DHT22;10632;51.276;7.116;2023-04-25T11:09:13;9.00;99.90
20946;DHT22;10632;51.276;7.116;2023-04-25T11:11:40;9.00;99.90
20946;DHT22;10632;51.276;7.116;2023-04-25T11:14:07;9.10;99.90
20946;DHT22;10632;51.276;7.116;2023-04-25T11:16:38;9.40;99.90
20946;DHT22;10632;51.276;7.116;2023-04-25T11:19:05;9.60;99.90
20946;DHT22;10632;51.276;7.116;2023-04-25T11:21:32;9.80;99.90
20946;DHT22;10632;51.276;7.116;2023-04-25T11:23:59;9.80;99.90
20946;DHT22;10632;51.276;7.116;2023-04-25T11:26:27;9.90;99.90
20946;DHT22;10632;51.276;7.116;2023-04-25T11:28:57;9.90;99.90
20946;DHT22;10632;51.276;7.116;2023-04-25T11:31:25;9.90;99.90
20946;DHT22;10632;51.276;7.116;2023-04-25T11:33:56;9.80;99.90
20946;DHT22;10632;51.276;7.116;2023-04-25T11:36:23;9.60;99.90
20946;DHT22;10632;51.276;7.116;2023-04-25T11:38:54;9.30;99.90
20946;DHT22;10632;51.276;7.116;2023-04-25T11:41:21;9.00;99.90
20946;DHT22;10632;51.276;7.116;2023-04-25T11:43:48;8.60;99.90
20946;DHT22;10632;51.276;7.116;2023-04-25T11:46:17;8.40;99.90
20946;DHT22;10632;51.276;7.116;2023-04-25T11:48:45;8.20;99.90
20946;DHT22;10632;51.276;7.116;2023-04-25T11:51:14;8.00;99.90
20946;DHT22;10632;51.276;7.116;2023-04-25T11:53:41;7.90;99.90
20946;DHT22;10632;51.276;7.116;2023-04-25T11:56:09;7.90;99.90
20946;DHT22;10632;51.276;7.116;2023-04-25T11:58:54;7.90;99.90
20946;DHT22;10632;51.276;7.116;2023-04-25T12:01:26;7.90;99.90
20946;DHT22;10632;51.276;7.116;2023-04-25T12:03:53;7.80;99.90
20946;DHT22;10632;51.276;7.116;2023-04-25T12:06:25;7.70;99.90
20946;DHT22;10632;51.276;7.116;2023-04-25T12:09:00;7.70;99.90
20946;DHT22;10632;51.276;7.116;2023-04-25T12:11:27;7.70;99.90
20946;DHT22;10632;51.276;7.116;2023-04-25T12:13:54;7.70;99.90
20946;DHT22;10632;51.276;7.116;2023-04-25T12:16:21;7.70;99.90
20946;DHT22;10632;51.276;7.116;2023-04-25T12:18:47;7.80;99.90
20946;DHT22;10632;51.276;7.116;2023-04-25T12:21:17;7.80;99.90
20946;DHT22;10632;51.276;7.116;2023-04-25T12:23:46;7.90;99.90
20946;DHT22;10632;51.276;7.116;2023-04-25T12:26:12;8.00;99.90
20946;DHT22;10632;51.276;7.116;2023-04-25T12:28:39;8.10;99.90
20946;DHT22;10632;51.276;7.116;2023-04-25T12:31:07;8.20;99.90
20946;DHT22;10632;51.276;7.116;2023-04-25T12:33:36;8.20;99.90
20946;DHT22;10632;51.276;7.116;2023-04-25T12:36:05;8.10;99.90
20946;DHT22;10632;51.276;7.116;2023-04-25T12:38:36;8.00;99.90
20946;DHT22;10632;51.276;7.116;2023-04-25T12:41:05;7.90;99.90
20946;DHT22;10632;51.276;7.116;2023-04-25T12:43:32;7.70;99.90
20946;DHT22;10632;51.276;7.116;2023-04-25T12:45:59;7.60;99.90
20946;DHT22;10632;51.276;7.116;2023-04-25T12:48:26;7.50;99.90
20946;DHT22;10632;51.276;7.116;2023-04-25T12:50:53;7.50;99.90
20946;DHT22;10632;51.276;7.116;2023-04-25T12:53:23;7.40;99.90
20946;DHT22;10632;51.276;7.116;2023-04-25T12:55:50;7.30;99.90
20946;DHT22;10632;51.276;7.116;2023-04-25T12:58:19;7.20;99.90
20946;DHT22;10632;51.276;7.116;2023-04-25T13:00:46;7.20;99.90
20946;DHT22;10632;51.276;7.116;2023-04-25T13:03:14;7.10;99.90
20946;DHT22;10632;51.276;7.116;2023-04-25T13:05:41;7.00;99.90
20946;DHT22;10632;51.276;7.116;2023-04-25T13:08:08;6.90;99.90
20946;DHT22;10632;51.276;7.116;2023-04-25T13:10:37;6.90;99.90
20946;DHT22;10632;51.276;7.116;2023-04-25T13:13:04;6.90;99.90
20946;DHT22;10632;51.276;7.116;2023-04-25T13:15:32;6.90;99.90
20946;DHT22;10632;51.276;7.116;2023-04-25T13:17:59;7.10;99.90
20946;DHT22;10632;51.276;7.116;2023-04-25T13:20:26;7.20;99.90
20946;DHT22;10632;51.276;7.116;2023-04-25T13:22:53;7.30;99.90
20946;DHT22;10632;51.276;7.116;2023-04-25T13:25:20;7.60;99.90
20946;DHT22;10632;51.276;7.116;2023-04-25T13:27:51;7.80;99.90
20946;DHT22;10632;51.276;7.116;2023-04-25T13:30:18;8.10;99.90
20946;DHT22;10632;51.276;7.116;2023-04-25T13:32:46;8.20;99.90
20946;DHT22;10632;51.276;7.116;2023-04-25T13:35:13;8.30;99.90
20946;DHT22;10632;51.276;7.116;2023-04-25T13:37:40;8.30;99.90
20946;DHT22;10632;51.276;7.116;2023-04-25T13:40:09;8.30;99.90
20946;DHT22;10632;51.276;7.116;2023-04-25T13:42:37;8.50;99.90
20946;DHT22;10632;51.276;7.116;2023-04-25T13:45:04;8.50;99.90
20946;DHT22;10632;51.276;7.116;2023-04-25T13:47:34;8.50;99.90
20946;DHT22;10632;51.276;7.116;2023-04-25T13:50:03;8.50;99.90
20946;DHT22;10632;51.276;7.116;2023-04-25T13:52:31;8.40;99.90
20946;DHT22;10632;51.276;7.116;2023-04-25T13:54:58;8.30;99.90
20946;DHT22;10632;51.276;7.116;2023-04-25T13:57:30;8.20;99.90
20946;DHT22;10632;51.276;7.116;2023-04-25T13:59:57;8.00;99.90
20946;DHT22;10632;51.276;7.116;2023-04-25T14:02:25;7.70;99.90
20946;DHT22;10632;51.276;7.116;2023-04-25T14:04:51;7.40;99.90
20946;DHT22;10632;51.276;7.116;2023-04-25T14:07:20;7.00;99.90
20946;DHT22;10632;51.276;7.116;2023-04-25T14:09:47;6.80;99.90
20946;DHT22;10632;51.276;7.116;2023-04-25T14:12:14;6.60;99.90
20946;DHT22;10632;51.276;7.116;2023-04-25T14:14:41;6.40;99.90
20946;DHT22;10632;51.276;7.116;2023-04-25T14:17:08;6.40;99.90
20946;DHT22;10632;51.276;7.116;2023-04-25T14:19:35;6.40;99.90
20946;DHT22;10632;51.276;7.116;2023-04-25T14:22:04;6.50;99.90
20946;DHT22;10632;51.276;7.116;2023-04-25T14:24:32;6.70;99.90
20946;DHT22;10632;51.276;7.116;2023-04-25T14:27:00;6.70;99.90
20946;DHT22;10632;51.276;7.116;2023-04-25T14:29:27;6.80;99.90
20946;DHT22;10632;51.276;7.116;2023-04-25T14:31:54;6.70;99.90
20946;DHT22;10632;51.276;7.116;2023-04-25T14:34:23;6.80;99.90
20946;DHT22;10632;51.276;7.116;2023-04-25T14:36:49;6.90;99.90
20946;DHT22;10632;51.276;7.116;2023-04-25T14:39:16;6.90;99.90
20946;DHT22;10632;51.276;7.116;2023-04-25T14:41:45;6.90;99.90
20946;DHT22;10632;51.276;7.116;2023-04-25T14:44:12;7.00;99.90
20946;DHT22;10632;51.276;7.116;2023-04-25T14:46:38;7.00;99.90
20946;DHT22;10632;51.276;7.116;2023-04-25T14:49:05;7.10;99.90
20946;DHT22;10632;51.276;7.116;2023-04-25T14:51:33;7.10;99.90
20946;DHT22;10632;51.276;7.116;2023-04-25T14:54:02;7.20;99.90
20946;DHT22;10632;51.276;7.116;2023-04-25T14:56:29;7.40;99.90
20946;DHT22;10632;51.276;7.116;2023-04-25T14:59:02;7.50;99.90
20946;DHT22;10632;51.276;7.116;2023-04-25T15:01:30;7.50;99.90
20946;DHT22;10632;51.276;7.116;2023-04-25T15:04:02;7.60;99.90
20946;DHT22;10632;51.276;7.116;2023-04-25T15:06:42;7.60;99.90
20946;DHT22;10632;51.276;7.116;2023-04-25T15:09:14;7.60;99.90
20946;DHT22;10632;51.276;7.116;2023-04-25T15:11:50;7.60;99.90
20946;DHT22;10632;51.276;7.116;2023-04-25T15:17:03;7.70;99.90
20946;DHT22;10632;51.276;7.116;2023-04-25T15:19:30;7.70;99.90
20946;DHT22;10632;51.276;7.116;2023-04-25T15:22:04;7.60;99.90
20946;DHT22;10632;51.276;7.116;2023-04-25T15:24:37;7.60;99.90
20946;DHT22;10632;51.276;7.116;2023-04-25T15:27:10;7.60;99.90
20946;DHT22;10632;51.276;7.116;2023-04-25T15:29:46;7.60;99.90
20946;DHT22;10632;51.276;7.116;2023-04-25T15:32:19;7.60;99.90
20946;DHT22;10632;51.276;7.116;2023-04-25T15:35:02;7.60;99.90
20946;DHT22;10632;51.276;7.116;2023-04-25T15:37:33;7.70;99.90
20946;DHT22;10632;51.276;7.116;2023-04-25T15:40:05;7.70;99.90
20946;DHT22;10632;51.276;7.116;2023-04-25T15:42:44;7.80;99.90
20946;DHT22;10632;51.276;7.116;2023-04-25T15:45:20;7.80;99.90
20946;DHT22;10632;51.276;7.116;2023-04-25T15:47:56;7.80;99.90
20946;DHT22;10632;51.276;7.116;2023-04-25T15:50:33;7.90;99.90
20946;DHT22;10632;51.276;7.116;2023-04-25T15:53:16;7.90;99.90